Time;durP1;ratioP1;P1;durP2;ratioP2;P2;SDS_P1;SDS_P2;PMS_P1;PMS_P2;Temp;Humidity;BMP_temperature;BMP_pressure;BME280_temperature;BME280_humidity;BME280_pressure;Samples;Min_cycle;Max_cycle;Signal;HPM_P1;HPM_P2
2023/06/22 00:01:12;;;;;;;7.30;5.40;;;20.10;99.90;;;;;;5010735;28;20850;-70
2023/06/22 00:03:40;;;;;;;6.20;5.60;;;20.10;99.90;;;;;;5010602;28;20840;-70
2023/06/22 00:06:07;;;;;;;6.80;6.10;;;20.00;99.90;;;;;;5010120;28;20472;-71
2023/06/22 00:08:34;;;;;;;6.13;5.50;;;20.00;99.90;;;;;;5010606;28;20457;-71
2023/06/22 00:11:01;;;;;;;5.90;5.17;;;20.00;99.90;;;;;;5010885;28;20522;-70
2023/06/22 00:13:28;;;;;;;6.63;5.50;;;19.90;99.90;;;;;;5010625;28;20467;-70
2023/06/22 00:15:54;;;;;;;6.83;6.17;;;19.90;99.90;;;;;;5009789;28;20457;-70
2023/06/22 00:18:21;;;;;;;5.83;4.93;;;19.80;99.90;;;;;;5010144;28;20485;-71
2023/06/22 00:20:49;;;;;;;5.97;5.10;;;19.80;99.90;;;;;;5024909;28;20466;-70
2023/06/22 00:23:17;;;;;;;6.33;5.50;;;19.70;99.90;;;;;;5030016;28;20456;-73
2023/06/22 00:25:44;;;;;;;6.87;5.30;;;19.70;99.90;;;;;;5029446;28;20464;-72
2023/06/22 00:28:10;;;;;;;6.83;5.87;;;19.70;99.90;;;;;;5029942;28;20484;-72
2023/06/22 00:30:37;;;;;;;8.13;6.00;;;19.70;99.90;;;;;;5029915;28;20465;-73
2023/06/22 00:33:07;;;;;;;8.50;5.63;;;19.70;99.90;;;;;;5029875;28;20460;-72
2023/06/22 00:35:35;;;;;;;7.70;6.27;;;19.60;99.90;;;;;;5029403;28;20460;-73
2023/06/22 00:38:04;;;;;;;5.97;5.37;;;19.60;99.90;;;;;;5029981;28;20484;-73
2023/06/22 00:40:32;;;;;;;5.97;5.27;;;19.60;99.90;;;;;;5002389;28;20932;-72
2023/06/22 00:42:59;;;;;;;7.00;5.90;;;19.50;99.90;;;;;;5010413;28;20461;-72
2023/06/22 00:45:26;;;;;;;5.97;5.30;;;19.50;99.90;;;;;;5009415;28;20465;-72
2023/06/22 00:47:53;;;;;;;7.60;5.87;;;19.40;99.90;;;;;;5009920;28;20481;-72
2023/06/22 00:50:22;;;;;;;5.67;5.03;;;19.40;99.90;;;;;;5009681;28;20465;-72
2023/06/22 00:52:52;;;;;;;6.10;4.60;;;19.40;99.90;;;;;;5009980;28;20491;-73
2023/06/22 00:55:21;;;;;;;5.90;4.93;;;19.40;99.90;;;;;;5012863;28;20468;-72
2023/06/22 00:57:48;;;;;;;5.83;5.20;;;19.40;99.90;;;;;;5014105;28;20507;-72
2023/06/22 01:00:19;;;;;;;5.80;5.20;;;19.40;99.90;;;;;;5014125;28;20465;-73
2023/06/22 01:02:46;;;;;;;5.50;5.00;;;19.40;99.90;;;;;;5013847;28;20488;-72
2023/06/22 01:05:14;;;;;;;5.87;5.20;;;19.30;99.90;;;;;;5013497;28;20469;-72
2023/06/22 01:07:47;;;;;;;7.63;5.67;;;19.30;99.90;;;;;;5013878;28;20480;-73
2023/06/22 01:10:20;;;;;;;6.27;5.67;;;19.30;99.90;;;;;;5013804;28;21003;-72
2023/06/22 01:12:52;;;;;;;5.70;5.20;;;19.30;99.90;;;;;;5014055;28;20457;-70
2023/06/22 01:15:24;;;;;;;7.50;5.90;;;19.30;99.90;;;;;;5013343;28;20457;-70
2023/06/22 01:17:53;;;;;;;6.43;5.80;;;19.30;99.90;;;;;;5013078;28;20589;-71
2023/06/22 01:20:22;;;;;;;6.17;5.33;;;19.30;99.90;;;;;;5023424;28;20472;-71
2023/06/22 01:23:03;;;;;;;6.10;5.13;;;19.30;99.90;;;;;;5033234;28;20467;-71
2023/06/22 01:25:37;;;;;;;7.90;5.27;;;19.30;99.90;;;;;;5032586;28;20579;-71
2023/06/22 01:28:23;;;;;;;9.07;5.23;;;19.30;99.90;;;;;;5033389;28;20479;-72
2023/06/22 01:31:03;;;;;;;7.00;6.03;;;19.30;99.90;;;;;;5008960;28;20775;-73
2023/06/22 01:33:31;;;;;;;5.43;4.57;;;19.30;99.90;;;;;;5013408;28;20486;-72
2023/06/22 01:35:58;;;;;;;6.40;5.43;;;19.30;99.90;;;;;;5013154;28;20468;-73
2023/06/22 01:38:26;;;;;;;6.40;5.80;;;19.30;99.90;;;;;;5013221;28;20511;-73
2023/06/22 01:40:53;;;;;;;7.40;5.60;;;19.30;99.90;;;;;;5013593;28;20840;-73
2023/06/22 01:43:22;;;;;;;5.03;4.53;;;19.30;99.90;;;;;;5013267;28;20468;-72
2023/06/22 01:45:52;;;;;;;6.30;5.30;;;19.30;99.90;;;;;;5012481;28;20465;-73
2023/06/22 01:48:19;;;;;;;7.53;6.43;;;19.30;99.90;;;;;;5012939;28;20481;-73
2023/06/22 01:50:46;;;;;;;7.77;5.13;;;19.20;99.90;;;;;;5013014;28;20468;-72
2023/06/22 01:53:13;;;;;;;5.80;5.00;;;19.20;99.90;;;;;;5012920;28;20469;-72
2023/06/22 01:55:40;;;;;;;6.07;5.33;;;19.20;99.90;;;;;;5012510;28;20472;-73
2023/06/22 01:58:06;;;;;;;7.20;5.60;;;19.20;99.90;;;;;;5012933;28;20515;-73
2023/06/22 02:00:38;;;;;;;5.73;5.20;;;19.20;99.90;;;;;;5012952;28;20465;-72
2023/06/22 02:03:13;;;;;;;5.73;5.13;;;19.20;99.90;;;;;;5013040;28;20975;-72
2023/06/22 02:05:48;;;;;;;5.80;5.17;;;19.20;99.90;;;;;;5011959;28;20882;-73
2023/06/22 02:08:20;;;;;;;5.83;5.23;;;19.10;99.90;;;;;;5012807;28;20477;-73
2023/06/22 02:10:49;;;;;;;5.23;4.73;;;19.10;99.90;;;;;;5012841;28;21003;-72
2023/06/22 02:13:17;;;;;;;7.10;5.03;;;19.10;99.90;;;;;;5012689;28;20496;-74
2023/06/22 02:15:45;;;;;;;5.77;5.17;;;19.10;99.90;;;;;;5011861;28;20956;-74
2023/06/22 02:18:14;;;;;;;6.40;5.00;;;19.10;99.90;;;;;;5012444;28;20866;-74
2023/06/22 02:20:41;;;;;;;5.67;5.17;;;19.00;99.90;;;;;;5017017;28;20460;-74
2023/06/22 02:23:08;;;;;;;6.20;5.60;;;19.00;99.90;;;;;;5032607;28;20849;-74
2023/06/22 02:25:35;;;;;;;7.17;5.00;;;19.00;99.90;;;;;;5012470;28;20462;-74
2023/06/22 02:28:02;;;;;;;7.37;5.40;;;19.00;99.90;;;;;;5020187;28;20480;-74
2023/06/22 02:30:29;;;;;;;7.57;5.23;;;19.00;99.90;;;;;;5029704;28;20479;-74
2023/06/22 02:32:59;;;;;;;5.70;5.10;;;19.00;99.90;;;;;;5027148;28;20940;-74
2023/06/22 02:35:31;;;;;;;6.07;5.30;;;19.00;99.90;;;;;;5031503;28;20460;-74
2023/06/22 02:37:59;;;;;;;6.53;5.80;;;19.00;99.90;;;;;;5025928;28;20477;-74
2023/06/22 02:40:25;;;;;;;6.20;5.60;;;19.00;99.90;;;;;;5030439;28;20515;-74
2023/06/22 02:42:52;;;;;;;6.63;5.50;;;19.00;99.90;;;;;;5018343;28;20469;-74
2023/06/22 02:45:19;;;;;;;8.13;6.17;;;19.00;99.90;;;;;;5011576;28;20952;-74
2023/06/22 02:47:47;;;;;;;6.57;5.60;;;19.00;99.90;;;;;;5011971;28;20905;-74
2023/06/22 02:50:14;;;;;;;5.70;5.17;;;19.00;99.90;;;;;;5012282;28;20465;-74
2023/06/22 02:52:42;;;;;;;6.27;5.23;;;19.00;99.90;;;;;;5012143;28;20473;-74
2023/06/22 02:55:09;;;;;;;6.93;5.40;;;19.00;99.90;;;;;;5011949;28;20468;-74
2023/06/22 02:57:36;;;;;;;7.30;6.27;;;19.00;99.90;;;;;;5014984;28;20480;-74
2023/06/22 03:00:15;;;;;;;5.83;5.30;;;19.00;99.90;;;;;;5031967;28;20487;-75
2023/06/22 03:02:41;;;;;;;6.73;5.57;;;19.00;99.90;;;;;;5032165;28;20562;-73
2023/06/22 03:05:13;;;;;;;6.73;5.47;;;19.00;99.90;;;;;;5031794;28;20464;-73
2023/06/22 03:07:42;;;;;;;5.70;4.03;;;18.90;99.90;;;;;;5031943;28;20512;-73
2023/06/22 03:10:10;;;;;;;5.53;5.03;;;18.90;99.90;;;;;;5032058;28;20456;-73
2023/06/22 03:12:37;;;;;;;6.47;5.00;;;18.80;99.90;;;;;;5031477;28;20460;-73
2023/06/22 03:15:05;;;;;;;5.67;5.17;;;18.80;99.90;;;;;;5031347;28;20476;-73
2023/06/22 03:17:31;;;;;;;5.43;4.73;;;18.80;99.90;;;;;;5030374;28;20484;-73
2023/06/22 03:19:58;;;;;;;7.27;5.07;;;18.80;99.90;;;;;;5031735;28;20495;-74
2023/06/22 03:22:25;;;;;;;5.93;5.33;;;18.80;99.90;;;;;;5031377;28;20469;-74
2023/06/22 03:24:53;;;;;;;6.00;4.70;;;18.70;99.90;;;;;;5025991;28;21177;-74
2023/06/22 03:27:19;;;;;;;5.30;4.80;;;18.70;99.90;;;;;;5011677;28;20481;-74
2023/06/22 03:29:46;;;;;;;7.23;5.97;;;18.60;99.90;;;;;;5011559;28;20570;-74
2023/06/22 03:32:13;;;;;;;5.93;5.20;;;18.60;99.90;;;;;;5003618;28;20897;-74
2023/06/22 03:34:39;;;;;;;6.03;5.43;;;18.60;99.90;;;;;;5002473;28;20995;-74
2023/06/22 03:37:06;;;;;;;6.90;5.50;;;18.60;99.90;;;;;;5005722;28;20487;-74
2023/06/22 03:39:33;;;;;;;5.30;4.80;;;18.60;99.90;;;;;;5001543;28;21000;-73
2023/06/22 03:42:01;;;;;;;7.27;5.37;;;18.60;99.90;;;;;;5005528;28;20489;-73
2023/06/22 03:44:28;;;;;;;6.07;5.47;;;18.60;99.90;;;;;;5003054;28;20457;-73
2023/06/22 03:46:55;;;;;;;8.63;6.43;;;18.60;99.90;;;;;;5004457;28;20960;-73
2023/06/22 03:49:21;;;;;;;6.40;5.20;;;18.60;99.90;;;;;;5002579;28;20454;-73
2023/06/22 03:51:48;;;;;;;6.37;4.97;;;18.50;99.90;;;;;;5003732;28;20472;-73
2023/06/22 03:54:15;;;;;;;5.80;5.23;;;18.50;99.90;;;;;;5004403;28;20501;-73
2023/06/22 03:56:42;;;;;;;10.03;5.97;;;18.60;99.90;;;;;;4999682;28;20492;-73
2023/06/22 03:59:10;;;;;;;5.90;5.30;;;18.60;99.90;;;;;;5005525;28;20487;-73
2023/06/22 04:01:37;;;;;;;7.43;5.50;;;18.60;99.90;;;;;;5002375;28;20549;-73
2023/06/22 04:04:04;;;;;;;6.53;5.83;;;18.60;99.90;;;;;;5005366;28;20493;-74
2023/06/22 04:06:31;;;;;;;7.00;5.50;;;18.60;99.90;;;;;;5002422;28;20493;-73
2023/06/22 04:08:58;;;;;;;6.13;5.53;;;18.60;99.90;;;;;;5004956;28;20979;-73
2023/06/22 04:11:24;;;;;;;8.07;5.90;;;18.60;99.90;;;;;;5003571;28;21035;-73
2023/06/22 04:13:51;;;;;;;6.37;5.77;;;18.60;99.90;;;;;;5003844;28;20462;-72
2023/06/22 04:16:19;;;;;;;6.53;5.10;;;18.60;99.90;;;;;;5003952;28;20462;-72
2023/06/22 04:18:46;;;;;;;7.27;5.83;;;18.60;99.90;;;;;;5011001;28;20472;-73
2023/06/22 04:21:14;;;;;;;6.10;5.53;;;18.60;99.90;;;;;;5002532;28;20816;-73
2023/06/22 04:23:40;;;;;;;6.20;5.53;;;18.70;99.90;;;;;;5004112;28;20469;-73
2023/06/22 04:26:07;;;;;;;7.37;6.10;;;18.70;99.90;;;;;;5002614;28;20462;-71
2023/06/22 04:28:34;;;;;;;5.20;4.70;;;18.70;99.90;;;;;;5004439;28;20472;-72
2023/06/22 04:31:01;;;;;;;7.20;6.50;;;18.70;99.90;;;;;;5000802;28;20484;-72
2023/06/22 04:33:30;;;;;;;7.20;6.50;;;18.80;99.90;;;;;;5006852;28;20531;-72
2023/06/22 04:35:57;;;;;;;7.13;5.47;;;18.80;99.90;;;;;;5007105;28;20466;-72
2023/06/22 04:38:24;;;;;;;6.30;5.30;;;18.80;99.90;;;;;;5003772;28;20523;-71
2023/06/22 04:40:51;;;;;;;7.10;5.50;;;18.80;99.90;;;;;;5004590;28;20489;-72
2023/06/22 04:43:18;;;;;;;6.07;5.30;;;18.90;99.90;;;;;;5004457;28;20468;-74
2023/06/22 04:45:44;;;;;;;6.57;5.73;;;18.90;99.90;;;;;;5000994;28;21045;-74
2023/06/22 04:48:15;;;;;;;5.60;5.00;;;18.90;99.90;;;;;;4998600;28;21018;-74
2023/06/22 04:50:44;;;;;;;7.27;5.63;;;19.00;99.90;;;;;;5010220;28;20464;-74
2023/06/22 04:53:12;;;;;;;7.23;5.87;;;19.00;99.90;;;;;;5043932;22;20492;-91
2023/06/22 04:55:41;;;;;;;7.23;6.07;;;19.10;99.90;;;;;;5043518;28;20468;-91
2023/06/22 04:58:08;;;;;;;7.30;6.30;;;19.10;99.90;;;;;;5037653;28;20456;-91
2023/06/22 05:00:36;;;;;;;6.97;6.03;;;19.20;99.90;;;;;;5050931;22;20878;-67
2023/06/22 05:03:03;;;;;;;6.20;5.60;;;19.30;99.90;;;;;;5039115;28;20538;-67
2023/06/22 05:05:30;;;;;;;7.07;5.67;;;19.40;99.90;;;;;;5032115;28;21037;-67
2023/06/22 05:08:00;;;;;;;7.30;6.00;;;19.40;99.90;;;;;;5049019;28;20483;-67
2023/06/22 05:10:27;;;;;;;6.27;5.30;;;19.50;99.90;;;;;;5049556;28;20451;-67
2023/06/22 05:12:53;;;;;;;6.47;5.87;;;19.60;99.90;;;;;;5049871;28;20575;-68
2023/06/22 05:15:20;;;;;;;8.47;5.67;;;19.60;99.90;;;;;;5048938;28;20466;-67
2023/06/22 05:17:47;;;;;;;6.27;4.90;;;19.70;99.90;;;;;;5049794;28;20482;-68
2023/06/22 05:20:17;;;;;;;5.87;5.07;;;19.80;99.90;;;;;;5049995;28;20869;-68
2023/06/22 05:22:44;;;;;;;5.63;4.50;;;19.80;99.90;;;;;;5049977;28;20455;-68
2023/06/22 05:25:12;;;;;;;4.80;4.30;;;19.90;99.90;;;;;;5049503;28;20459;-67
2023/06/22 05:27:40;;;;;;;5.67;5.07;;;20.00;99.90;;;;;;5049259;28;20507;-68
2023/06/22 05:30:08;;;;;;;6.50;4.57;;;20.10;99.90;;;;;;5049482;28;20482;-68
2023/06/22 05:32:34;;;;;;;8.07;5.43;;;20.10;99.90;;;;;;5049142;28;20698;-68
2023/06/22 05:35:01;;;;;;;5.37;4.47;;;20.20;99.90;;;;;;5049330;28;20980;-68
2023/06/22 05:37:28;;;;;;;5.87;4.90;;;20.30;99.90;;;;;;5049222;28;20480;-68
2023/06/22 05:39:57;;;;;;;4.90;4.50;;;20.40;99.90;;;;;;5050175;28;20483;-68
2023/06/22 05:42:25;;;;;;;6.40;4.83;;;20.50;99.90;;;;;;5053062;28;20463;-68
2023/06/22 05:44:53;;;;;;;9.10;5.30;;;20.60;99.90;;;;;;5053193;28;20459;-68
2023/06/22 05:47:19;;;;;;;7.33;4.93;;;20.70;99.90;;;;;;5053360;28;20915;-68
2023/06/22 05:49:46;;;;;;;7.40;4.77;;;20.70;99.90;;;;;;5053167;28;20466;-68
2023/06/22 05:52:13;;;;;;;6.63;4.30;;;20.80;99.90;;;;;;5053132;28;20846;-68
2023/06/22 05:54:41;;;;;;;5.23;4.17;;;20.90;99.90;;;;;;5053210;28;20475;-68
2023/06/22 05:57:08;;;;;;;7.00;4.97;;;20.90;99.90;;;;;;5053357;28;20487;-68
2023/06/22 05:59:36;;;;;;;6.63;4.30;;;21.00;99.90;;;;;;5052404;28;20489;-68
2023/06/22 06:02:03;;;;;;;6.37;4.33;;;21.00;99.90;;;;;;5052752;28;20982;-68
2023/06/22 06:04:30;;;;;;;6.70;4.40;;;21.10;99.90;;;;;;5052090;28;20463;-68
2023/06/22 06:06:57;;;;;;;5.20;4.03;;;21.10;99.90;;;;;;5052607;28;20906;-68
2023/06/22 06:09:23;;;;;;;7.70;4.63;;;21.10;99.90;;;;;;5052300;28;20494;-68
2023/06/22 06:11:50;;;;;;;6.30;4.27;;;21.10;99.90;;;;;;5052711;28;20460;-68
2023/06/22 06:14:17;;;;;;;4.73;3.83;;;21.10;99.90;;;;;;5052362;28;20474;-68
2023/06/22 06:16:45;;;;;;;5.43;4.53;;;21.10;99.90;;;;;;5052261;28;20533;-68
2023/06/22 06:19:12;;;;;;;6.80;5.20;;;21.10;99.90;;;;;;5052524;28;20467;-68
2023/06/22 06:21:38;;;;;;;5.07;4.13;;;21.20;99.90;;;;;;5052132;28;20501;-68
2023/06/22 06:24:06;;;;;;;5.20;4.00;;;21.20;99.90;;;;;;5052363;28;20464;-68
2023/06/22 06:26:32;;;;;;;5.67;4.03;;;21.30;99.90;;;;;;5051349;28;20488;-68
2023/06/22 06:29:02;;;;;;;4.67;3.67;;;21.40;99.90;;;;;;5052267;28;20555;-68
2023/06/22 06:31:28;;;;;;;4.63;3.70;;;21.50;99.90;;;;;;5051886;28;20518;-68
2023/06/22 06:33:56;;;;;;;4.27;3.70;;;21.60;99.90;;;;;;5052280;28;20462;-68
2023/06/22 06:36:23;;;;;;;4.90;3.93;;;21.70;99.90;;;;;;5051581;28;20476;-70
2023/06/22 06:38:50;;;;;;;4.27;3.87;;;21.70;99.90;;;;;;5043944;28;20476;-69
2023/06/22 06:41:17;;;;;;;6.70;3.83;;;21.80;99.90;;;;;;5051908;28;20480;-69
2023/06/22 06:43:44;;;;;;;4.40;4.00;;;21.80;99.90;;;;;;5051922;28;20491;-69
2023/06/22 06:46:10;;;;;;;7.80;4.20;;;21.90;99.90;;;;;;5051477;28;20973;-69
2023/06/22 06:48:37;;;;;;;5.53;3.90;;;22.00;99.90;;;;;;5051497;28;20471;-69
2023/06/22 06:51:09;;;;;;;5.77;4.03;;;22.10;99.90;;;;;;5046768;28;20876;-70
2023/06/22 06:53:36;;;;;;;6.83;4.40;;;22.20;99.90;;;;;;5050829;28;20464;-69
2023/06/22 06:56:03;;;;;;;5.20;4.00;;;22.20;99.90;;;;;;5050344;28;20560;-69
2023/06/22 06:58:30;;;;;;;4.63;4.10;;;22.30;99.90;;;;;;5049860;28;20465;-70
2023/06/22 07:00:56;;;;;;;5.30;4.10;;;22.40;99.90;;;;;;5050453;28;20477;-68
2023/06/22 07:03:23;;;;;;;4.80;3.20;;;22.50;99.90;;;;;;5050322;28;20465;-68
2023/06/22 07:05:50;;;;;;;5.83;3.60;;;22.50;99.90;;;;;;5049562;28;20472;-68
2023/06/22 07:08:18;;;;;;;4.43;4.03;;;22.60;99.90;;;;;;5050453;28;20558;-68
2023/06/22 07:10:45;;;;;;;4.63;3.67;;;22.70;99.90;;;;;;5050939;28;20497;-70
2023/06/22 07:13:12;;;;;;;5.10;3.87;;;22.80;99.90;;;;;;5050751;28;20494;-68
2023/06/22 07:15:39;;;;;;;5.57;3.57;;;22.90;99.90;;;;;;5049762;28;20966;-68
2023/06/22 07:18:06;;;;;;;5.80;4.30;;;23.00;99.90;;;;;;5050481;28;20485;-68
2023/06/22 07:20:33;;;;;;;3.83;3.43;;;23.10;99.90;;;;;;5050026;28;21101;-68
2023/06/22 07:22:59;;;;;;;5.40;3.73;;;23.20;99.90;;;;;;5050358;28;20472;-69
2023/06/22 07:25:28;;;;;;;5.57;4.17;;;23.20;99.90;;;;;;5050113;28;20456;-67
2023/06/22 07:28:00;;;;;;;5.63;4.00;;;23.30;99.90;;;;;;5049829;28;20488;-67
2023/06/22 07:30:27;;;;;;;4.50;3.90;;;23.40;99.90;;;;;;5050422;28;20466;-68
2023/06/22 07:32:54;;;;;;;3.63;3.30;;;23.50;99.90;;;;;;5042805;28;20460;-68
2023/06/22 07:35:20;;;;;;;5.60;3.87;;;23.60;99.90;;;;;;5049473;28;20474;-68
2023/06/22 07:37:47;;;;;;;3.37;3.07;;;23.70;99.90;;;;;;5050132;28;20482;-68
2023/06/22 07:40:14;;;;;;;3.90;3.47;;;23.70;99.90;;;;;;5049743;28;20472;-68
2023/06/22 07:42:42;;;;;;;5.67;3.70;;;23.80;99.90;;;;;;5049319;28;20471;-68
2023/06/22 07:45:09;;;;;;;6.97;3.80;;;23.90;99.90;;;;;;5049667;28;20458;-68
2023/06/22 07:47:36;;;;;;;4.43;3.20;;;23.90;99.90;;;;;;5049712;28;20483;-68
2023/06/22 07:50:04;;;;;;;4.60;3.63;;;23.90;99.90;;;;;;5049365;28;20465;-68
2023/06/22 07:52:31;;;;;;;3.70;3.40;;;24.00;99.90;;;;;;5049254;28;20836;-69
2023/06/22 07:54:58;;;;;;;5.17;3.80;;;24.10;99.90;;;;;;5049089;28;20464;-69
2023/06/22 07:57:31;;;;;;;5.17;4.03;;;24.10;99.90;;;;;;5048893;28;20495;-69
2023/06/22 08:00:00;;;;;;;5.13;3.17;;;24.20;99.90;;;;;;5041708;28;20471;-68
2023/06/22 08:02:27;;;;;;;4.23;3.23;;;24.30;99.90;;;;;;5048893;28;20528;-67
2023/06/22 08:04:53;;;;;;;5.10;3.50;;;24.40;99.90;;;;;;5047911;28;20468;-68
2023/06/22 08:07:20;;;;;;;4.10;3.70;;;24.40;99.90;;;;;;5049164;28;20476;-68
2023/06/22 08:09:48;;;;;;;4.67;3.70;;;24.60;99.90;;;;;;5048803;28;20472;-68
2023/06/22 08:12:15;;;;;;;4.13;3.73;;;24.70;99.90;;;;;;5048790;28;20464;-68
2023/06/22 08:14:43;;;;;;;4.80;3.77;;;24.90;99.90;;;;;;5048892;28;20553;-68
2023/06/22 08:17:11;;;;;;;4.50;3.50;;;24.90;99.90;;;;;;5048805;28;20524;-68
2023/06/22 08:19:38;;;;;;;4.70;3.90;;;25.10;99.90;;;;;;5048210;28;20464;-67
2023/06/22 08:22:05;;;;;;;5.30;3.60;;;25.10;99.90;;;;;;5049235;28;20477;-68
2023/06/22 08:24:32;;;;;;;4.87;3.50;;;25.10;99.90;;;;;;5048802;28;20464;-68
2023/06/22 08:26:59;;;;;;;4.67;3.60;;;25.10;99.90;;;;;;5041077;28;20848;-68
2023/06/22 08:29:25;;;;;;;4.37;3.90;;;25.10;99.90;;;;;;5048630;28;20499;-68
2023/06/22 08:31:52;;;;;;;3.90;3.37;;;25.10;99.90;;;;;;5048718;28;20491;-68
2023/06/22 08:34:21;;;;;;;4.43;3.90;;;25.10;99.90;;;;;;5048385;28;20473;-68
2023/06/22 08:36:51;;;;;;;4.87;4.30;;;25.20;99.90;;;;;;5046088;28;20570;-68
2023/06/22 08:39:18;;;;;;;7.10;3.97;;;25.30;99.90;;;;;;5043762;28;20520;-68
2023/06/22 08:41:45;;;;;;;4.17;3.80;;;25.30;99.90;;;;;;5047968;28;20534;-68
2023/06/22 08:44:11;;;;;;;4.33;3.77;;;25.40;99.90;;;;;;5049184;28;20469;-68
2023/06/22 08:46:40;;;;;;;4.00;3.47;;;25.40;99.90;;;;;;5047321;28;20901;-68
2023/06/22 08:49:07;;;;;;;5.03;4.27;;;25.40;99.90;;;;;;5047942;28;20955;-68
2023/06/22 08:51:35;;;;;;;6.43;4.07;;;25.40;99.90;;;;;;5047790;28;20501;-68
2023/06/22 08:54:02;;;;;;;5.60;4.27;;;25.50;99.90;;;;;;5048150;28;20474;-68
2023/06/22 08:56:29;;;;;;;4.10;3.70;;;25.60;99.90;;;;;;5047311;28;21009;-69
2023/06/22 08:58:55;;;;;;;3.83;3.53;;;25.60;99.90;;;;;;5048288;28;20469;-68
2023/06/22 09:01:23;;;;;;;7.70;3.63;;;25.70;99.90;;;;;;5047583;28;20493;-68
2023/06/22 09:03:54;;;;;;;5.90;4.07;;;25.70;99.90;;;;;;5047630;28;20510;-68
2023/06/22 09:06:21;;;;;;;5.60;4.10;;;25.70;99.90;;;;;;5047287;28;20470;-68
2023/06/22 09:08:49;;;;;;;5.10;4.20;;;25.70;99.90;;;;;;5047906;28;20880;-68
2023/06/22 09:11:16;;;;;;;7.37;4.40;;;25.70;99.90;;;;;;5047400;28;20459;-68
2023/06/22 09:13:42;;;;;;;3.90;3.50;;;25.80;99.90;;;;;;5047724;28;20463;-67
2023/06/22 09:16:09;;;;;;;7.93;4.13;;;25.90;99.90;;;;;;5050734;28;20521;-67
2023/06/22 09:18:36;;;;;;;4.77;4.30;;;26.00;99.90;;;;;;5050875;28;20545;-67
2023/06/22 09:21:03;;;;;;;6.83;3.77;;;26.10;99.90;;;;;;5051638;28;20929;-68
2023/06/22 09:23:30;;;;;;;6.03;4.13;;;26.30;99.90;;;;;;5052041;28;20480;-67
2023/06/22 09:25:58;;;;;;;5.00;4.50;;;26.50;99.90;;;;;;5050995;28;20470;-67
2023/06/22 09:28:25;;;;;;;5.03;4.57;;;26.60;99.90;;;;;;5051986;28;20487;-67
2023/06/22 09:30:58;;;;;;;4.83;3.90;;;26.60;99.90;;;;;;5050981;28;20466;-68
2023/06/22 09:33:25;;;;;;;4.83;3.57;;;26.80;99.90;;;;;;5051392;28;20477;-68
2023/06/22 09:35:52;;;;;;;5.30;4.00;;;26.90;99.90;;;;;;5050456;28;20954;-67
2023/06/22 09:38:19;;;;;;;4.50;4.03;;;27.00;99.90;;;;;;5051590;28;20483;-68
2023/06/22 09:40:45;;;;;;;6.50;4.17;;;27.10;99.90;;;;;;5050126;28;20493;-67
2023/06/22 09:43:13;;;;;;;5.67;4.20;;;27.20;99.90;;;;;;5051277;28;20464;-67
2023/06/22 09:45:40;;;;;;;4.27;3.80;;;27.30;99.90;;;;;;5050474;28;20492;-67
2023/06/22 09:48:07;;;;;;;4.83;4.23;;;27.40;99.90;;;;;;5051221;28;20495;-68
2023/06/22 09:50:34;;;;;;;6.13;4.40;;;27.50;99.90;;;;;;5051054;28;20475;-68
2023/06/22 09:53:00;;;;;;;6.50;4.33;;;27.50;99.90;;;;;;5051009;28;20915;-68
2023/06/22 09:55:27;;;;;;;7.30;3.50;;;27.50;99.90;;;;;;5049299;28;20848;-68
2023/06/22 09:57:54;;;;;;;5.87;4.57;;;27.60;99.90;;;;;;5051083;28;20491;-68
2023/06/22 10:00:22;;;;;;;6.27;4.60;;;27.80;99.90;;;;;;5051065;28;20494;-68
2023/06/22 10:02:50;;;;;;;4.33;3.93;;;27.90;99.90;;;;;;5050537;28;20466;-68
2023/06/22 10:05:17;;;;;;;5.03;3.83;;;28.00;99.90;;;;;;5050353;28;20901;-68
2023/06/22 10:07:44;;;;;;;6.40;3.93;;;28.10;99.90;;;;;;5050530;28;20496;-68
2023/06/22 10:10:11;;;;;;;5.00;4.00;;;28.10;99.90;;;;;;5051247;28;20476;-68
2023/06/22 10:12:42;;;;;;;6.20;4.67;;;28.00;99.90;;;;;;5050063;28;20472;-67
2023/06/22 10:15:09;;;;;;;8.63;4.10;;;27.90;99.90;;;;;;5050563;28;20469;-68
2023/06/22 10:17:37;;;;;;;5.43;4.07;;;27.80;99.90;;;;;;5051060;28;21045;-69
2023/06/22 10:20:10;;;;;;;6.60;4.40;;;27.80;99.90;;;;;;5042854;28;20470;-68
2023/06/22 10:22:37;;;;;;;4.43;4.00;;;27.80;99.90;;;;;;5051029;28;20584;-68
2023/06/22 10:25:04;;;;;;;5.97;4.53;;;27.90;99.90;;;;;;5042528;28;20460;-68
2023/06/22 10:27:31;;;;;;;6.13;4.70;;;27.90;99.90;;;;;;5050437;28;20861;-68
2023/06/22 10:29:58;;;;;;;5.47;4.30;;;28.00;99.90;;;;;;5050592;28;20469;-68
2023/06/22 10:32:25;;;;;;;4.93;4.43;;;28.10;99.90;;;;;;5049705;28;20457;-68
2023/06/22 10:34:53;;;;;;;6.03;4.63;;;28.30;99.90;;;;;;5049789;28;20502;-68
2023/06/22 10:37:19;;;;;;;6.30;4.03;;;28.30;99.90;;;;;;5050119;28;20489;-67
2023/06/22 10:39:46;;;;;;;4.80;4.30;;;28.40;99.90;;;;;;5049803;28;20456;-68
2023/06/22 10:42:13;;;;;;;4.50;4.10;;;28.40;99.90;;;;;;5050120;28;20501;-68
2023/06/22 10:44:41;;;;;;;4.50;3.77;;;28.60;99.90;;;;;;5049054;28;20955;-68
2023/06/22 10:47:08;;;;;;;5.00;4.60;;;28.70;99.90;;;;;;5049871;28;20602;-68
2023/06/22 10:49:35;;;;;;;6.07;4.57;;;28.90;99.90;;;;;;5048662;28;20978;-68
2023/06/22 10:52:03;;;;;;;4.37;3.97;;;28.90;99.90;;;;;;5050983;28;20458;-68
2023/06/22 10:54:30;;;;;;;8.93;4.60;;;28.90;99.90;;;;;;5050804;28;20474;-67
2023/06/22 10:56:56;;;;;;;4.90;3.90;;;28.80;99.90;;;;;;5041802;28;20987;-67
2023/06/22 10:59:23;;;;;;;6.33;4.67;;;28.80;99.90;;;;;;5051106;28;20482;-67
2023/06/22 11:01:50;;;;;;;6.83;4.43;;;28.70;99.90;;;;;;5042801;28;20486;-67
2023/06/22 11:04:17;;;;;;;4.60;3.53;;;28.60;99.90;;;;;;5050711;28;20479;-67
2023/06/22 11:06:44;;;;;;;7.30;4.83;;;28.60;99.90;;;;;;5042524;28;20606;-67
2023/06/22 11:09:12;;;;;;;6.20;4.50;;;28.60;99.90;;;;;;5050809;28;20836;-70
2023/06/22 11:11:39;;;;;;;5.40;4.17;;;28.50;99.90;;;;;;5050520;28;21154;-67
2023/06/22 11:14:05;;;;;;;5.30;4.30;;;28.60;99.90;;;;;;5042770;28;20469;-67
2023/06/22 11:16:32;;;;;;;5.73;4.97;;;28.60;99.90;;;;;;5049862;28;20498;-67
2023/06/22 11:18:59;;;;;;;5.77;4.40;;;28.50;99.90;;;;;;5047923;28;20464;-67
2023/06/22 11:21:25;;;;;;;8.10;4.70;;;28.50;99.90;;;;;;5045030;28;21028;-67
2023/06/22 11:23:52;;;;;;;6.90;4.57;;;28.50;99.90;;;;;;5049699;28;20464;-67
2023/06/22 11:26:21;;;;;;;4.93;4.53;;;28.40;99.90;;;;;;5049656;28;20951;-67
2023/06/22 11:28:47;;;;;;;7.40;4.60;;;28.30;99.90;;;;;;5050441;28;20520;-67
2023/06/22 11:31:14;;;;;;;6.03;4.20;;;28.30;99.90;;;;;;5050071;28;20470;-67
2023/06/22 11:33:41;;;;;;;6.70;4.77;;;28.40;99.90;;;;;;5111324;22;20498;-71
2023/06/22 11:36:09;;;;;;;4.20;3.80;;;28.50;99.90;;;;;;5030672;28;20467;-71
2023/06/22 11:38:36;;;;;;;5.10;4.53;;;28.60;99.90;;;;;;5039196;28;20495;-71
2023/06/22 11:41:03;;;;;;;4.73;4.10;;;28.70;99.90;;;;;;5042075;28;20463;-70
2023/06/22 11:43:31;;;;;;;5.73;5.07;;;28.80;99.90;;;;;;5051144;28;20468;-71
2023/06/22 11:45:58;;;;;;;7.03;4.57;;;28.90;99.90;;;;;;5050257;28;20479;-71
2023/06/22 11:48:25;;;;;;;4.40;3.93;;;29.10;99.90;;;;;;5050912;28;20490;-70
2023/06/22 11:50:52;;;;;;;5.53;5.00;;;29.10;99.90;;;;;;5050673;28;20463;-71
2023/06/22 11:53:18;;;;;;;5.10;4.40;;;29.10;99.90;;;;;;5051102;28;20459;-70
2023/06/22 11:55:45;;;;;;;5.40;4.90;;;29.00;99.90;;;;;;5050411;28;20459;-71
2023/06/22 11:58:13;;;;;;;5.37;4.83;;;28.90;99.90;;;;;;5050681;28;20489;-70
2023/06/22 12:00:41;;;;;;;4.43;4.00;;;28.90;99.90;;;;;;5051032;28;20463;-71
2023/06/22 12:03:09;;;;;;;7.33;4.07;;;28.90;99.90;;;;;;5050322;28;20490;-70
2023/06/22 12:05:36;;;;;;;4.70;4.03;;;29.00;99.90;;;;;;5050232;28;20491;-72
2023/06/22 12:08:02;;;;;;;4.23;3.70;;;29.00;99.90;;;;;;5050436;28;20848;-71
2023/06/22 12:10:29;;;;;;;4.80;4.27;;;29.00;99.90;;;;;;5050686;28;20474;-71
2023/06/22 12:12:57;;;;;;;8.60;4.70;;;28.90;99.90;;;;;;5050200;28;20456;-71
2023/06/22 12:15:24;;;;;;;4.73;4.10;;;28.90;99.90;;;;;;5050138;28;20550;-71
2023/06/22 12:17:52;;;;;;;7.03;4.10;;;28.80;99.90;;;;;;5049972;28;20479;-72
2023/06/22 12:20:19;;;;;;;5.37;4.73;;;28.80;99.90;;;;;;5050428;28;20827;-71
2023/06/22 12:22:47;;;;;;;10.00;5.20;;;28.80;99.90;;;;;;5050064;28;20483;-70
2023/06/22 12:25:14;;;;;;;6.50;4.43;;;28.80;99.90;;;;;;5049728;28;20965;-71
2023/06/22 12:27:40;;;;;;;5.00;4.50;;;28.70;99.90;;;;;;5050449;28;20483;-71
2023/06/22 12:30:09;;;;;;;7.40;4.60;;;28.70;99.90;;;;;;5046864;28;20478;-71
2023/06/22 12:32:36;;;;;;;4.63;4.23;;;28.60;99.90;;;;;;5045456;28;20460;-71
2023/06/22 12:35:04;;;;;;;5.30;4.20;;;28.50;99.90;;;;;;5049726;28;20470;-71
2023/06/22 12:37:32;;;;;;;6.30;4.60;;;28.40;99.90;;;;;;5044205;28;20990;-71
2023/06/22 12:39:59;;;;;;;5.20;4.27;;;28.30;99.90;;;;;;5044538;28;20897;-71
2023/06/22 12:42:26;;;;;;;4.97;4.27;;;28.30;99.90;;;;;;5034706;28;20903;-71
2023/06/22 12:44:52;;;;;;;5.23;3.90;;;28.30;99.90;;;;;;5028911;28;20456;-71
2023/06/22 12:47:20;;;;;;;7.40;4.50;;;28.30;99.90;;;;;;5033919;28;20479;-70
2023/06/22 12:49:46;;;;;;;5.33;4.23;;;28.20;99.90;;;;;;5049315;28;20469;-70